Time;durP1;ratioP1;P1;durP2;ratioP2;P2;SDS_P1;SDS_P2;PMS_P1;PMS_P2;Temp;Humidity;BMP_temperature;BMP_pressure;BME280_temperature;BME280_humidity;BME280_pressure;Samples;Min_cycle;Max_cycle;Signal;HPM_P1;HPM_P2
2024/01/16 00:01:18;;;;;;;8.80;5.22;;;;;;;3.45;51.48;98737.63;4422050;32;20137;-89
2024/01/16 00:03:47;;;;;;;8.65;5.12;;;;;;;3.37;51.92;98750.31;4421912;32;20160;-89
2024/01/16 00:06:18;;;;;;;6.22;4.57;;;;;;;3.42;51.92;98754.34;4422040;32;20161;-89
2024/01/16 00:08:47;;;;;;;9.57;4.87;;;;;;;3.29;52.54;98758.63;4420937;32;20153;-89
2024/01/16 00:11:16;;;;;;;8.80;4.87;;;;;;;3.13;53.05;98758.66;4406753;32;20494;-89
2024/01/16 00:13:45;;;;;;;6.65;5.00;;;;;;;2.75;54.30;98768.66;4406738;32;20525;-88
2024/01/16 00:16:15;;;;;;;6.12;4.30;;;;;;;3.02;53.87;98776.75;4406613;32;20157;-89
2024/01/16 00:18:44;;;;;;;6.15;4.53;;;;;;;3.25;53.40;98778.06;4406602;32;20169;-88
2024/01/16 00:21:13;;;;;;;6.75;4.87;;;;;;;2.97;54.13;98778.78;4393377;32;20576;-88
2024/01/16 00:23:44;;;;;;;9.55;4.97;;;;;;;3.20;53.73;98783.53;4406864;32;20156;-89
2024/01/16 00:26:21;;;;;;;5.90;4.22;;;;;;;3.06;54.07;98790.50;4406587;32;20459;-88
2024/01/16 00:28:50;;;;;;;6.60;4.32;;;;;;;3.24;53.81;98793.81;4406553;32;20188;-89
2024/01/16 00:31:20;;;;;;;5.90;3.92;;;;;;;3.48;53.17;98789.78;4406721;32;20800;-89
2024/01/16 00:33:49;;;;;;;6.25;4.62;;;;;;;3.29;53.59;98797.91;4406515;32;20148;-89
2024/01/16 00:36:19;;;;;;;10.15;5.18;;;;;;;3.28;53.92;98803.19;4406743;32;20173;-89
2024/01/16 00:38:49;;;;;;;6.55;4.55;;;;;;;3.50;53.31;98805.44;4406454;32;20149;-89
2024/01/16 00:41:19;;;;;;;7.28;4.85;;;;;;;3.42;53.33;98805.88;4406578;32;20181;-89
2024/01/16 00:43:48;;;;;;;9.93;5.30;;;;;;;3.41;53.42;98817.28;4406585;32;20160;-89
2024/01/16 00:46:17;;;;;;;10.02;4.40;;;;;;;3.64;52.71;98816.81;4406428;32;20454;-89
2024/01/16 00:48:47;;;;;;;7.53;5.30;;;;;;;3.65;52.89;98823.72;4406406;32;20177;-89
2024/01/16 00:51:21;;;;;;;12.32;5.12;;;;;;;3.71;52.62;98833.00;4406718;32;20464;-89
2024/01/16 00:53:52;;;;;;;8.60;4.18;;;;;;;3.80;52.54;98848.19;4406069;32;20544;-89
2024/01/16 00:56:24;;;;;;;6.12;3.70;;;;;;;3.81;52.21;98849.03;4406287;32;20156;-89
2024/01/16 00:58:54;;;;;;;9.10;4.68;;;;;;;3.83;52.19;98848.00;4406247;32;20168;-89
2024/01/16 01:01:23;;;;;;;5.40;3.95;;;;;;;3.51;52.86;98857.72;4406251;32;20414;-89
2024/01/16 01:03:52;;;;;;;4.78;3.78;;;;;;;3.83;52.10;98855.84;4406392;32;20140;-89
2024/01/16 01:06:22;;;;;;;5.85;4.22;;;;;;;3.51;52.85;98856.88;4406133;32;20164;-89
2024/01/16 01:08:52;;;;;;;6.57;4.30;;;;;;;3.66;52.42;98856.00;4406198;32;20181;-89
2024/01/16 01:11:21;;;;;;;14.00;5.00;;;;;;;3.50;52.80;98858.66;4406460;32;20165;-88
2024/01/16 01:13:50;;;;;;;6.62;4.68;;;;;;;3.58;52.59;98859.06;4406392;32;20487;-89
2024/01/16 01:16:20;;;;;;;7.37;4.37;;;;;;;3.62;52.43;98865.81;4406373;32;20153;-89
2024/01/16 01:18:49;;;;;;;7.03;3.90;;;;;;;3.74;52.01;98866.88;4406262;32;20161;-88
2024/01/16 01:21:18;;;;;;;6.53;4.03;;;;;;;3.27;53.34;98867.81;4406470;32;20156;-89
2024/01/16 01:23:48;;;;;;;5.85;4.43;;;;;;;3.62;52.34;98867.59;4392185;32;20169;-89
2024/01/16 01:26:19;;;;;;;5.62;3.80;;;;;;;3.69;52.03;98871.56;4406069;32;20176;-89
2024/01/16 01:28:48;;;;;;;6.95;4.78;;;;;;;3.55;51.72;98872.31;4406138;32;20165;-89
2024/01/16 01:31:17;;;;;;;5.70;4.55;;;;;;;3.53;52.16;98875.97;4406265;32;20161;-89
2024/01/16 01:33:47;;;;;;;5.15;4.50;;;;;;;2.94;53.31;98883.59;4406214;32;20145;-89
2024/01/16 01:36:16;;;;;;;8.63;4.62;;;;;;;3.14;52.68;98883.34;4406432;32;20164;-89
2024/01/16 01:38:45;;;;;;;7.07;4.75;;;;;;;2.96;53.58;98877.34;4406084;32;20165;-89
2024/01/16 01:41:18;;;;;;;7.53;4.37;;;;;;;3.27;52.83;98880.91;4406214;32;20149;-89
2024/01/16 01:43:47;;;;;;;6.95;4.55;;;;;;;3.34;52.62;98881.41;4406237;32;20149;-89
2024/01/16 01:46:19;;;;;;;5.43;4.25;;;;;;;3.29;52.61;98884.28;4406031;32;20148;-89
2024/01/16 01:48:49;;;;;;;6.67;5.10;;;;;;;3.50;52.29;98882.22;4405984;32;20167;-89
2024/01/16 01:51:19;;;;;;;8.20;5.35;;;;;;;3.52;52.23;98879.50;4406583;32;20163;-89
2024/01/16 01:53:52;;;;;;;6.70;4.47;;;;;;;3.72;51.76;98878.38;4406172;32;20137;-89
2024/01/16 01:56:24;;;;;;;6.62;4.90;;;;;;;3.48;52.17;98884.06;4393684;32;20153;-89
2024/01/16 01:58:57;;;;;;;8.82;5.75;;;;;;;3.45;52.52;98895.59;4390865;32;20509;-89
2024/01/16 02:01:29;;;;;;;7.95;5.15;;;;;;;3.19;53.08;98891.78;4390925;32;20212;-89
2024/01/16 02:04:00;;;;;;;8.82;6.25;;;;;;;3.54;52.20;98902.06;4390888;32;20430;-89
2024/01/16 02:06:30;;;;;;;8.45;5.90;;;;;;;3.48;52.36;98898.94;4390763;32;20161;-89
2024/01/16 02:08:59;;;;;;;8.15;6.03;;;;;;;3.28;52.67;98905.28;4391148;32;20185;-89
2024/01/16 02:11:30;;;;;;;9.07;6.05;;;;;;;3.11;53.10;98904.44;4390648;32;20164;-89
2024/01/16 02:14:04;;;;;;;8.20;6.18;;;;;;;3.32;52.28;98912.88;4387040;32;20478;-88
2024/01/16 02:16:38;;;;;;;6.25;5.37;;;;;;;3.33;52.61;98919.84;4398816;32;20465;-89
2024/01/16 02:19:08;;;;;;;7.45;6.20;;;;;;;3.56;51.77;98926.37;4394142;32;20188;-89
2024/01/16 02:21:42;;;;;;;8.25;5.97;;;;;;;3.28;52.53;98923.63;4405731;32;20157;-89
2024/01/16 02:26:59;;;;;;;7.85;6.12;;;;;;;3.17;52.74;98938.16;4405532;32;20157;-89
2024/01/16 02:29:29;;;;;;;9.45;6.75;;;;;;;3.39;52.03;98935.19;4405527;32;20173;-89
2024/01/16 02:31:58;;;;;;;8.70;6.30;;;;;;;3.50;51.91;98944.25;4405701;32;20168;-89
2024/01/16 02:34:31;;;;;;;10.18;6.15;;;;;;;3.52;51.82;98945.81;4405411;32;20195;-89
2024/01/16 02:37:00;;;;;;;9.50;6.53;;;;;;;3.67;51.45;98949.37;4405777;32;20449;-89
2024/01/16 02:39:30;;;;;;;9.18;6.65;;;;;;;3.64;51.46;98952.16;4405471;32;20731;-89
2024/01/16 02:41:59;;;;;;;6.62;5.87;;;;;;;3.62;51.47;98954.03;4406195;32;20184;-89
2024/01/16 02:44:30;;;;;;;9.00;6.15;;;;;;;3.67;51.39;98959.84;4405521;32;20166;-89
2024/01/16 02:47:00;;;;;;;8.10;5.70;;;;;;;3.93;50.68;98966.25;4405619;32;20405;-89
2024/01/16 02:49:31;;;;;;;10.75;6.07;;;;;;;3.76;51.10;98959.34;4405381;32;20145;-89
2024/01/16 02:52:01;;;;;;;6.82;5.43;;;;;;;3.70;51.04;98965.78;4405413;32;20165;-89
2024/01/16 02:54:32;;;;;;;6.70;4.82;;;;;;;3.67;51.32;98960.69;4405514;32;20153;-89
2024/01/16 02:57:01;;;;;;;8.60;5.37;;;;;;;3.39;51.45;98964.00;4405699;32;20165;-89
2024/01/16 02:59:31;;;;;;;7.65;5.75;;;;;;;3.63;51.24;98967.03;4405481;32;20248;-89
2024/01/16 03:02:00;;;;;;;7.80;5.65;;;;;;;3.37;51.52;98962.41;4405431;32;20160;-88
2024/01/16 03:04:31;;;;;;;8.75;6.03;;;;;;;2.99;52.36;98970.53;4405419;32;20167;-89
2024/01/16 03:07:00;;;;;;;9.20;6.22;;;;;;;3.12;51.86;98974.19;4405298;32;20172;-90
2024/01/16 03:09:29;;;;;;;8.38;6.15;;;;;;;2.92;52.13;98970.00;4405248;32;20505;-89
2024/01/16 03:12:00;;;;;;;8.80;5.53;;;;;;;2.72;52.97;98981.53;4405912;32;20165;-89
2024/01/16 03:14:34;;;;;;;8.85;5.57;;;;;;;3.12;51.82;98974.19;4405283;32;20156;-89
2024/01/16 03:17:03;;;;;;;9.88;6.90;;;;;;;2.93;52.39;98976.97;4405189;32;20479;-89
2024/01/16 03:19:32;;;;;;;8.65;5.78;;;;;;;2.74;52.80;98991.09;4405182;32;20169;-89
2024/01/16 03:22:03;;;;;;;8.35;6.15;;;;;;;2.70;52.52;98987.78;4405192;32;20524;-89
2024/01/16 03:24:39;;;;;;;9.27;5.80;;;;;;;2.79;52.41;98987.28;4405130;32;20702;-89
2024/01/16 03:27:09;;;;;;;8.45;6.12;;;;;;;3.04;51.69;98992.06;4405435;32;20161;-89
2024/01/16 03:29:39;;;;;;;7.40;5.35;;;;;;;2.92;51.74;99003.19;4405330;32;20169;-89
2024/01/16 03:32:14;;;;;;;7.40;5.45;;;;;;;3.35;50.83;98998.28;4407072;32;20460;-89
2024/01/16 03:34:44;;;;;;;6.45;4.90;;;;;;;3.44;50.56;99006.50;4407188;32;20165;-89
2024/01/16 03:37:13;;;;;;;7.68;5.30;;;;;;;3.19;50.89;99006.97;4407240;32;20177;-89
2024/01/16 03:39:44;;;;;;;6.80;5.20;;;;;;;3.33;50.56;99008.03;4407224;32;20213;-89
2024/01/16 03:42:15;;;;;;;10.23;5.57;;;;;;;3.19;50.70;99014.81;4407569;32;20177;-89
2024/01/16 03:44:44;;;;;;;7.50;5.75;;;;;;;3.00;51.26;99019.34;4407184;32;20149;-89
2024/01/16 03:47:14;;;;;;;6.53;5.53;;;;;;;2.75;51.64;99032.84;4407445;32;20156;-89
2024/01/16 03:49:43;;;;;;;7.25;5.10;;;;;;;3.06;50.98;99029.50;4406890;32;20157;-89
2024/01/16 03:52:14;;;;;;;8.20;5.05;;;;;;;3.06;51.11;99028.66;4407080;32;20148;-89
2024/01/16 03:54:43;;;;;;;10.68;5.65;;;;;;;3.31;50.20;99023.78;4406880;32;20252;-88
2024/01/16 03:57:14;;;;;;;10.18;5.43;;;;;;;2.89;51.15;99029.50;4407424;32;20148;-89
2024/01/16 03:59:44;;;;;;;8.80;6.40;;;;;;;2.97;50.96;99029.97;4393150;32;20146;-89
2024/01/16 04:02:14;;;;;;;9.30;5.47;;;;;;;3.20;50.66;99034.81;4407025;32;20133;-89
2024/01/16 04:04:43;;;;;;;12.32;5.62;;;;;;;3.17;50.76;99039.41;4406988;32;20482;-89
2024/01/16 04:07:17;;;;;;;7.93;5.30;;;;;;;3.19;50.81;99027.06;4406839;32;20157;-89
2024/01/16 04:09:46;;;;;;;10.35;5.70;;;;;;;2.98;51.22;99047.38;4406858;32;20128;-89
2024/01/16 04:12:19;;;;;;;9.35;6.80;;;;;;;2.85;51.38;99046.28;4407322;32;20197;-89
2024/01/16 04:14:49;;;;;;;10.70;6.75;;;;;;;2.89;51.50;99053.94;4406856;32;20173;-89
2024/01/16 04:17:18;;;;;;;11.60;7.62;;;;;;;3.26;50.74;99045.94;4406910;32;20192;-89
2024/01/16 04:19:53;;;;;;;17.23;7.95;;;;;;;3.22;50.85;99054.88;4406879;32;20171;-89
2024/01/16 04:22:22;;;;;;;14.55;8.25;;;;;;;3.36;50.58;99044.50;4407012;32;20145;-89
2024/01/16 04:24:55;;;;;;;16.67;8.07;;;;;;;3.20;50.80;99060.16;4406897;32;20121;-89
2024/01/16 04:27:28;;;;;;;26.48;11.00;;;;;;;3.20;51.02;99063.63;4406828;32;20213;-89
2024/01/16 04:30:05;;;;;;;18.62;9.25;;;;;;;3.11;51.30;99068.50;4407105;32;20168;-89
2024/01/16 04:32:38;;;;;;;12.37;7.53;;;;;;;3.30;50.78;99068.41;4406879;32;20468;-89
2024/01/16 04:35:08;;;;;;;10.13;6.55;;;;;;;3.25;50.67;99071.25;4406983;32;20141;-89
2024/01/16 04:37:38;;;;;;;11.02;6.50;;;;;;;3.51;50.07;99072.47;4406699;32;20176;-89
2024/01/16 04:40:15;;;;;;;6.75;5.57;;;;;;;3.46;50.10;99074.50;4406832;32;20160;-89
2024/01/16 04:42:46;;;;;;;7.45;5.30;;;;;;;3.40;49.99;99083.53;4405984;32;20445;-89
2024/01/16 04:45:15;;;;;;;8.52;6.10;;;;;;;3.25;50.34;99093.94;4407038;32;20164;-89
2024/01/16 04:47:47;;;;;;;6.80;4.90;;;;;;;3.13;50.47;99096.31;4406833;32;20153;-89
2024/01/16 04:50:16;;;;;;;6.87;5.35;;;;;;;3.41;50.15;99097.47;4406677;32;20160;-89
2024/01/16 04:52:46;;;;;;;9.73;5.50;;;;;;;3.31;50.47;99104.13;4406798;32;20538;-89
2024/01/16 04:55:15;;;;;;;7.70;5.72;;;;;;;3.30;50.13;99103.28;4406677;32;20493;-89
2024/01/16 04:57:49;;;;;;;7.15;5.32;;;;;;;3.32;50.21;99109.25;4406736;32;20160;-89
2024/01/16 05:00:18;;;;;;;6.97;4.70;;;;;;;3.42;49.94;99113.09;4407409;32;20145;-89
2024/01/16 05:02:48;;;;;;;7.03;5.53;;;;;;;3.51;49.28;99113.53;4406759;32;20168;-89
2024/01/16 05:05:17;;;;;;;6.70;5.22;;;;;;;3.14;50.10;99112.84;4406879;32;20552;-89
2024/01/16 05:07:47;;;;;;;9.00;5.28;;;;;;;3.07;49.90;99116.69;4406851;32;20149;-89
2024/01/16 05:10:16;;;;;;;8.15;5.03;;;;;;;2.89;49.74;99124.56;4406841;32;20433;-89
2024/01/16 05:12:44;;;;;;;8.63;4.65;;;;;;;3.08;49.17;99119.22;4406830;32;20552;-89
2024/01/16 05:15:15;;;;;;;7.62;4.70;;;;;;;2.95;49.54;99126.03;4407192;32;20160;-89
2024/01/16 05:17:44;;;;;;;7.30;4.93;;;;;;;3.00;49.55;99136.25;4406649;32;20168;-88
2024/01/16 05:20:14;;;;;;;7.05;4.43;;;;;;;3.07;49.23;99137.66;4406874;32;20149;-89
2024/01/16 05:22:43;;;;;;;7.12;4.68;;;;;;;2.86;49.84;99139.56;4393279;32;20164;-89
2024/01/16 05:25:12;;;;;;;7.07;5.68;;;;;;;2.96;49.66;99140.78;4406917;32;20149;-89
2024/01/16 05:27:41;;;;;;;6.75;4.78;;;;;;;2.92;49.68;99144.47;4406589;32;20445;-89
2024/01/16 05:30:11;;;;;;;7.03;5.20;;;;;;;2.80;49.73;99151.16;4406976;32;20177;-89
2024/01/16 05:32:45;;;;;;;7.53;5.03;;;;;;;3.04;49.46;99158.72;4406719;32;20133;-89
2024/01/16 05:35:17;;;;;;;7.80;4.97;;;;;;;3.07;49.41;99163.81;4406950;32;20133;-89
2024/01/16 05:37:47;;;;;;;6.57;4.70;;;;;;;2.94;49.49;99164.44;4393042;32;20173;-89
2024/01/16 05:40:17;;;;;;;8.38;4.53;;;;;;;2.89;49.60;99160.34;4406837;32;20165;-89
2024/01/16 05:42:47;;;;;;;7.68;5.32;;;;;;;2.84;49.74;99171.03;4393177;32;20432;-89
2024/01/16 05:45:18;;;;;;;7.78;5.47;;;;;;;2.67;49.91;99165.78;4407143;32;20148;-89
2024/01/16 05:47:49;;;;;;;7.85;4.95;;;;;;;2.69;49.92;99167.41;4406875;32;20152;-89
2024/01/16 05:50:18;;;;;;;7.65;5.62;;;;;;;2.41;50.62;99173.09;4406634;32;20450;-89
2024/01/16 05:52:48;;;;;;;10.10;5.62;;;;;;;2.64;50.11;99182.47;4406555;32;20145;-89
2024/01/16 05:55:17;;;;;;;8.55;5.03;;;;;;;2.45;50.49;99174.69;4406859;32;20133;-89
2024/01/16 05:57:47;;;;;;;6.43;4.80;;;;;;;2.63;50.00;99180.78;4406655;32;20157;-89
2024/01/16 06:00:17;;;;;;;7.30;4.40;;;;;;;2.78;49.63;99186.19;4406846;32;20161;-89
2024/01/16 06:02:48;;;;;;;7.68;4.70;;;;;;;2.67;49.88;99187.56;4406918;32;20156;-89
2024/01/16 06:05:20;;;;;;;8.82;5.10;;;;;;;2.76;49.51;99191.50;4406838;32;20168;-89
2024/01/16 06:07:53;;;;;;;6.72;4.93;;;;;;;2.34;50.58;99194.41;4406706;32;20141;-89
2024/01/16 06:10:22;;;;;;;7.20;6.18;;;;;;;2.14;50.91;99201.41;4406734;32;20169;-89
2024/01/16 06:12:51;;;;;;;8.27;5.40;;;;;;;2.35;50.37;99198.72;4406861;32;20156;-89
2024/01/16 06:15:21;;;;;;;5.68;4.68;;;;;;;2.60;49.79;99194.00;4407334;32;20782;-90
2024/01/16 06:17:55;;;;;;;6.70;5.20;;;;;;;2.49;49.70;99198.88;4406682;32;20153;-89
2024/01/16 06:20:25;;;;;;;6.25;4.90;;;;;;;2.53;49.58;99203.06;4407020;32;20160;-90
2024/01/16 06:22:54;;;;;;;8.43;5.35;;;;;;;2.35;49.77;99207.41;4406529;32;20812;-88
2024/01/16 06:25:24;;;;;;;9.00;5.40;;;;;;;2.28;50.10;99205.97;4392939;32;20136;-88
2024/01/16 06:27:53;;;;;;;8.00;6.47;;;;;;;2.54;49.51;99209.16;4406592;32;20157;-89
2024/01/16 06:30:23;;;;;;;7.12;5.07;;;;;;;2.27;50.13;99214.75;4407108;32;20149;-90
2024/01/16 06:32:56;;;;;;;8.48;5.75;;;;;;;2.21;49.93;99208.03;4407000;32;20140;-90
2024/01/16 06:35:29;;;;;;;7.12;5.35;;;;;;;2.36;49.70;99218.69;4406926;32;20510;-89
2024/01/16 06:37:59;;;;;;;8.55;4.87;;;;;;;2.30;49.87;99230.28;4406983;32;20129;-90
2024/01/16 06:40:28;;;;;;;7.95;5.43;;;;;;;2.20;50.08;99231.63;4406954;32;20138;-90
2024/01/16 06:42:58;;;;;;;9.50;5.93;;;;;;;2.18;50.31;99234.31;4406809;32;20160;-90
2024/01/16 06:45:27;;;;;;;8.85;5.50;;;;;;;2.12;50.61;99245.03;4406691;32;20141;-89
2024/01/16 06:47:58;;;;;;;7.62;6.12;;;;;;;1.88;51.26;99249.59;4407168;32;20145;-90
2024/01/16 06:50:30;;;;;;;9.95;5.05;;;;;;;2.00;50.91;99263.88;4407038;32;20415;-90
2024/01/16 06:52:59;;;;;;;10.43;5.87;;;;;;;2.08;50.87;99266.16;4406795;32;20449;-90
2024/01/16 06:55:29;;;;;;;8.60;5.45;;;;;;;2.35;50.41;99282.38;4406943;32;20141;-90
2024/01/16 06:58:01;;;;;;;7.50;5.55;;;;;;;2.28;50.45;99284.41;4406870;32;20149;-90
2024/01/16 07:00:31;;;;;;;7.12;5.55;;;;;;;2.56;50.20;99283.97;4406585;32;20133;-90
2024/01/16 07:03:02;;;;;;;8.82;6.28;;;;;;;2.81;49.84;99282.81;4406984;32;20125;-90
2024/01/16 07:05:34;;;;;;;10.55;7.18;;;;;;;3.41;48.39;99293.88;4407607;32;20149;-90
2024/01/16 07:08:04;;;;;;;8.45;6.60;;;;;;;3.61;47.52;99300.75;4408025;32;20144;-90
2024/01/16 07:10:34;;;;;;;7.85;5.90;;;;;;;4.36;46.09;99305.56;4408273;32;20419;-90
2024/01/16 07:13:04;;;;;;;8.95;5.57;;;;;;;5.06;44.74;99305.25;4408003;32;20176;-90
2024/01/16 07:15:33;;;;;;;9.68;6.05;;;;;;;5.60;43.30;99306.50;4407828;32;20569;-89
2024/01/16 07:18:04;;;;;;;8.48;6.20;;;;;;;6.13;42.16;99310.38;4407998;32;20529;-90
2024/01/16 07:20:40;;;;;;;7.72;5.45;;;;;;;6.51;40.88;99309.00;4407751;32;20145;-89
2024/01/16 07:23:09;;;;;;;9.73;6.15;;;;;;;6.35;40.88;99311.72;4407919;32;20128;-89
2024/01/16 07:25:39;;;;;;;8.52;5.75;;;;;;;5.53;42.43;99320.94;4407502;32;20168;-89
2024/01/16 07:28:09;;;;;;;7.62;6.40;;;;;;;5.48;42.60;99322.16;4407577;32;20157;-89
2024/01/16 07:30:44;;;;;;;10.50;6.75;;;;;;;4.99;43.48;99328.41;4407682;32;20156;-89
2024/01/16 07:33:14;;;;;;;6.47;4.78;;;;;;;4.95;43.70;99332.13;4407675;32;20268;-89
2024/01/16 07:35:47;;;;;;;13.85;6.53;;;;;;;4.79;44.35;99332.13;4407510;32;20168;-89
2024/01/16 07:38:17;;;;;;;9.60;6.35;;;;;;;4.61;44.51;99333.94;4393263;32;20212;-89
2024/01/16 07:40:54;;;;;;;10.65;7.12;;;;;;;4.52;44.67;99342.31;4407256;32;20169;-89
2024/01/16 07:43:23;;;;;;;14.93;9.02;;;;;;;4.40;44.78;99330.72;4407369;32;20181;-89
2024/01/16 07:45:53;;;;;;;19.73;12.88;;;;;;;4.43;45.18;99345.41;4407249;32;20524;-89
2024/01/16 07:48:23;;;;;;;26.52;16.17;;;;;;;4.61;44.75;99346.22;4407560;32;20153;-88
2024/01/16 07:50:56;;;;;;;30.20;18.05;;;;;;;4.51;44.75;99343.22;4406685;32;20596;-89
2024/01/16 07:53:31;;;;;;;11.48;7.82;;;;;;;4.68;44.75;99360.72;4406831;32;20152;-89
2024/01/16 07:56:00;;;;;;;8.90;5.15;;;;;;;4.53;44.94;99359.75;4407257;32;20173;-89
2024/01/16 07:58:30;;;;;;;6.03;3.90;;;;;;;4.14;45.05;99358.28;4406938;32;20526;-88
2024/01/16 08:00:59;;;;;;;7.82;4.22;;;;;;;4.70;43.75;99361.47;4406851;32;20149;-89
2024/01/16 08:03:30;;;;;;;7.80;4.12;;;;;;;4.89;43.32;99369.19;4406827;32;20144;-89
2024/01/16 08:06:02;;;;;;;4.93;3.55;;;;;;;4.87;41.66;99365.81;4407802;32;20160;-89
2024/01/16 08:08:33;;;;;;;7.87;3.78;;;;;;;4.86;41.59;99370.22;4406755;32;20431;-89
2024/01/16 08:11:03;;;;;;;6.03;3.70;;;;;;;5.19;40.80;99361.44;4406761;32;20137;-89
2024/01/16 08:13:32;;;;;;;7.30;4.07;;;;;;;5.40;40.45;99367.25;4407229;32;20172;-89
2024/01/16 08:16:01;;;;;;;4.35;3.35;;;;;;;5.07;40.59;99383.97;4406528;32;20533;-89
2024/01/16 08:18:32;;;;;;;5.75;3.60;;;;;;;5.35;39.86;99375.41;4407725;32;20160;-89
2024/01/16 08:21:07;;;;;;;4.82;3.60;;;;;;;5.63;39.38;99377.31;4407030;32;20153;-89
2024/01/16 08:23:37;;;;;;;10.65;3.40;;;;;;;5.74;39.19;99384.59;4406476;32;20160;-89
2024/01/16 08:26:06;;;;;;;7.45;3.72;;;;;;;6.00;38.64;99377.81;4406483;32;20172;-89
2024/01/16 08:28:38;;;;;;;;;;;;;;;6.04;38.62;99397.75;4406618;32;20451;-89
2024/01/16 08:31:07;;;;;;;6.95;4.18;;;;;;;6.09;38.41;99390.41;4406098;32;20040;-89
2024/01/16 08:33:38;;;;;;;8.40;4.32;;;;;;;5.86;38.71;99393.50;4406828;32;20529;-88
2024/01/16 08:36:16;;;;;;;5.47;3.78;;;;;;;5.71;38.75;99400.53;4406406;32;20149;-88
2024/01/16 08:38:48;;;;;;;7.87;3.75;;;;;;;5.43;39.58;99399.47;4406322;32;20534;-89
2024/01/16 08:41:20;;;;;;;5.68;3.53;;;;;;;5.36;39.51;99411.22;4407742;32;20172;-89
2024/01/16 08:43:50;;;;;;;5.87;3.95;;;;;;;4.84;40.16;99406.22;4408164;32;20177;-88
2024/01/16 08:46:21;;;;;;;6.47;3.55;;;;;;;4.63;40.71;99412.59;4407892;32;20153;-89
2024/01/16 08:48:51;;;;;;;4.93;2.95;;;;;;;5.43;39.43;99396.00;4406637;32;20161;-90
2024/01/16 08:51:21;;;;;;;5.80;4.00;;;;;;;5.73;38.58;99395.16;4406991;32;20153;-89
2024/01/16 08:53:50;;;;;;;5.03;3.55;;;;;;;6.80;37.43;99401.97;4421116;32;20522;-89
2024/01/16 08:56:20;;;;;;;7.18;4.05;;;;;;;7.39;35.51;99386.81;4406372;32;20458;-90
2024/01/16 08:58:50;;;;;;;6.32;3.15;;;;;;;7.93;34.54;99391.25;4406544;32;20145;-90
2024/01/16 09:01:20;;;;;;;5.00;3.10;;;;;;;8.76;33.10;99394.41;4392643;32;20157;-90
2024/01/16 09:03:52;;;;;;;4.62;3.50;;;;;;;9.04;31.96;99404.72;4376279;32;20173;-89
2024/01/16 09:06:24;;;;;;;4.97;3.60;;;;;;;9.32;31.61;99406.22;4376548;32;20158;-89
2024/01/16 09:08:54;;;;;;;;;;;;;;;9.83;30.18;99400.72;4376219;32;20173;-90
2024/01/16 09:11:23;;;;;;;6.60;3.42;;;;;;;10.50;29.36;99405.41;4388470;32;20080;-90
2024/01/16 09:13:52;;;;;;;5.85;3.47;;;;;;;10.50;29.26;99401.94;4390682;32;20169;-90
2024/01/16 09:16:22;;;;;;;5.55;3.97;;;;;;;10.63;28.51;99397.38;4390687;32;20164;-89
2024/01/16 09:18:58;;;;;;;6.77;3.80;;;;;;;10.63;28.77;99404.47;4390944;32;20137;-89
2024/01/16 09:21:28;;;;;;;4.87;3.67;;;;;;;10.30;29.36;99399.00;4390805;32;20221;-90
2024/01/16 09:23:58;;;;;;;7.80;4.40;;;;;;;10.71;28.31;99405.56;4391177;32;20141;-90
2024/01/16 09:26:27;;;;;;;5.22;4.00;;;;;;;10.40;28.80;99409.72;4390732;32;20792;-89
2024/01/16 09:28:56;;;;;;;10.82;4.07;;;;;;;10.23;28.81;99402.19;4390393;32;20163;-89
2024/01/16 09:31:26;;;;;;;6.40;3.87;;;;;;;10.29;29.25;99407.91;4390723;32;20168;-89
2024/01/16 09:33:55;;;;;;;6.30;4.05;;;;;;;10.66;28.97;99398.94;4390748;32;20200;-89
2024/01/16 09:36:28;;;;;;;6.47;5.07;;;;;;;10.87;28.48;99401.72;4390481;32;20145;-89
2024/01/16 09:38:57;;;;;;;10.90;4.87;;;;;;;10.91;28.40;99403.16;4391005;32;20437;-89
2024/01/16 09:42:00;;;;;;;8.32;4.03;;;;;;;11.21;28.32;99400.75;4377728;32;20160;-89
2024/01/16 09:44:30;;;;;;;7.57;4.62;;;;;;;10.62;28.77;99402.78;4390466;32;20173;-89
2024/01/16 09:47:00;;;;;;;9.15;4.65;;;;;;;10.61;28.73;99406.37;4390364;32;20173;-89
2024/01/16 09:49:32;;;;;;;6.82;4.40;;;;;;;10.49;29.16;99398.44;4390661;32;20180;-89
2024/01/16 09:52:03;;;;;;;7.43;4.60;;;;;;;10.51;29.23;99414.22;4390743;32;20153;-89
2024/01/16 09:54:34;;;;;;;7.77;4.53;;;;;;;10.56;29.25;99401.44;4390477;32;20153;-89
2024/01/16 09:57:14;;;;;;;5.82;4.05;;;;;;;10.67;29.43;99408.56;4390780;32;20261;-89
2024/01/16 09:59:45;;;;;;;7.10;4.47;;;;;;;9.56;30.89;99400.94;4390533;32;20156;-89
2024/01/16 10:02:15;;;;;;;8.43;4.90;;;;;;;10.21;29.65;99404.09;4390426;32;20160;-89
2024/01/16 10:04:44;;;;;;;10.23;4.28;;;;;;;10.55;29.28;99408.56;4390376;32;20161;-89
2024/01/16 10:07:16;;;;;;;6.80;4.30;;;;;;;10.99;29.23;99398.94;4390332;32;20177;-89
2024/01/16 10:09:47;;;;;;;7.20;4.25;;;;;;;11.07;28.66;99399.16;4390343;32;20169;-89
2024/01/16 10:12:17;;;;;;;6.00;3.50;;;;;;;11.46;27.78;99396.94;4390779;32;20188;-88
2024/01/16 10:14:50;;;;;;;4.43;2.95;;;;;;;11.33;27.35;99393.63;4390168;32;20161;-89
2024/01/16 10:17:20;;;;;;;4.45;2.80;;;;;;;10.66;27.91;99404.25;4389994;32;20157;-89
2024/01/16 10:19:51;;;;;;;4.87;3.05;;;;;;;9.74;28.70;99404.06;4390457;32;20161;-88
2024/01/16 10:22:24;;;;;;;7.65;3.92;;;;;;;10.47;28.38;99405.66;4390234;32;20165;-89
2024/01/16 10:25:12;;;;;;;4.85;2.72;;;;;;;10.59;28.32;99396.75;4390003;32;20140;-89
2024/01/16 10:27:41;;;;;;;5.25;3.03;;;;;;;11.32;27.28;99391.91;4389197;32;20176;-89
2024/01/16 10:30:11;;;;;;;10.40;2.90;;;;;;;11.40;26.85;99396.59;4390408;32;20154;-88
2024/01/16 10:32:42;;;;;;;5.30;3.25;;;;;;;11.33;26.49;99389.16;4375986;32;20173;-89
2024/01/16 10:35:13;;;;;;;7.18;2.78;;;;;;;11.78;25.97;99391.66;4389898;32;20203;-89
2024/01/16 10:37:45;;;;;;;6.05;3.58;;;;;;;11.62;26.25;99398.37;4389409;32;20153;-89
2024/01/16 10:40:19;;;;;;;4.20;2.92;;;;;;;10.62;27.31;99402.78;4390735;32;20631;-89
2024/01/16 10:43:00;;;;;;;5.75;3.00;;;;;;;10.43;27.48;99403.34;4391780;32;20161;-89
2024/01/16 10:45:30;;;;;;;6.78;3.30;;;;;;;10.61;27.42;99401.09;4391522;32;20487;-89
2024/01/16 10:48:03;;;;;;;5.35;3.00;;;;;;;10.28;27.76;99402.72;4375611;32;20165;-89
2024/01/16 10:50:35;;;;;;;4.43;3.08;;;;;;;11.17;27.10;99399.31;4376592;32;20176;-88
2024/01/16 10:53:08;;;;;;;6.12;3.50;;;;;;;11.03;27.14;99407.50;4376665;32;20177;-89
2024/01/16 10:55:49;;;;;;;6.28;3.47;;;;;;;11.26;27.03;99403.88;4376614;32;20189;-88
2024/01/16 10:58:22;;;;;;;6.18;3.12;;;;;;;11.67;26.85;99407.63;4376665;32;20162;-88
2024/01/16 11:00:54;;;;;;;5.10;3.12;;;;;;;12.02;25.81;99406.56;4364766;32;20178;-89
2024/01/16 11:03:30;;;;;;;5.65;3.33;;;;;;;11.70;26.27;99407.37;4391681;32;20148;-88
2024/01/16 11:06:09;;;;;;;6.05;3.10;;;;;;;11.69;26.44;99396.91;4392002;32;20538;-88
2024/01/16 11:08:43;;;;;;;5.32;3.03;;;;;;;11.62;26.86;99399.19;4391377;32;20157;-89
2024/01/16 11:11:14;;;;;;;5.78;3.62;;;;;;;11.53;26.56;99400.81;4391415;32;20174;-89
2024/01/16 11:13:46;;;;;;;4.70;3.60;;;;;;;12.10;26.38;99398.81;4391424;32;20141;-88
2024/01/16 11:16:17;;;;;;;7.05;3.90;;;;;;;11.83;26.01;99407.25;4391635;32;20165;-88
2024/01/16 11:18:46;;;;;;;8.15;3.60;;;;;;;10.75;27.19;99406.16;4391401;32;20533;-89
2024/01/16 11:21:17;;;;;;;4.62;3.12;;;;;;;10.29;27.75;99399.09;4392027;32;20156;-88
2024/01/16 11:23:49;;;;;;;6.10;4.15;;;;;;;10.59;27.71;99409.16;4391483;32;20169;-89
2024/01/16 11:26:31;;;;;;;9.52;3.65;;;;;;;10.64;27.63;99403.50;4376887;32;20157;-88
2024/01/16 11:29:01;;;;;;;6.20;3.30;;;;;;;11.04;27.29;99403.88;4391372;32;20161;-88
2024/01/16 11:31:32;;;;;;;7.25;3.70;;;;;;;10.37;27.64;99399.34;4391361;32;20173;-89
2024/01/16 11:34:04;;;;;;;8.68;3.67;;;;;;;10.74;27.78;99402.69;4391390;32;20169;-89
2024/01/16 11:36:52;;;;;;;6.05;3.50;;;;;;;10.87;27.42;99397.25;4391352;32;20196;-88
2024/01/16 11:39:27;;;;;;;8.52;3.20;;;;;;;10.69;27.86;99393.38;4375996;32;20186;-88
2024/01/16 11:41:57;;;;;;;6.40;4.05;;;;;;;10.52;27.76;99392.88;4391770;32;20177;-88
2024/01/16 11:44:48;;;;;;;4.22;3.42;;;;;;;10.58;27.75;99396.88;4391645;32;20157;-88
2024/01/16 11:47:19;;;;;;;4.80;3.22;;;;;;;10.68;27.76;99402.31;4391116;32;20164;-88
2024/01/16 11:50:08;;;;;;;5.97;3.20;;;;;;;9.54;28.59;99402.00;4391106;32;20525;-88
2024/01/16 11:52:42;;;;;;;5.65;3.97;;;;;;;9.29;29.39;99413.53;4391164;32;20166;-88
2024/01/16 11:55:28;;;;;;;5.60;2.87;;;;;;;8.76;29.80;99411.09;4391090;32;20539;-88
2024/01/16 11:58:20;;;;;;;4.80;3.15;;;;;;;9.40;29.07;99402.19;4384956;32;20181;-88
2024/01/16 12:00:51;;;;;;;5.15;3.17;;;;;;;9.18;29.24;99406.34;4391084;32;20615;-88